createdAt,value
2019-06-15T00:00:55.098Z,17.95
2019-06-15T00:03:21.963Z,17.88
2019-06-15T00:05:48.727Z,17.88
2019-06-15T00:08:15.436Z,17.85
2019-06-15T00:10:42.114Z,17.87
2019-06-15T00:13:08.818Z,17.87
2019-06-15T00:15:35.595Z,17.94
2019-06-15T00:18:02.387Z,17.94
2019-06-15T00:20:29.129Z,17.91
2019-06-15T00:22:55.787Z,17.90
2019-06-15T00:25:22.630Z,17.88
2019-06-15T00:27:49.336Z,17.96
2019-06-15T00:30:16.126Z,17.93
2019-06-15T00:32:42.829Z,17.94
2019-06-15T00:35:09.844Z,17.98
2019-06-15T00:37:36.620Z,17.97
2019-06-15T00:40:04.630Z,17.95
2019-06-15T00:42:31.405Z,18.03
2019-06-15T00:44:58.110Z,18.04
2019-06-15T00:47:24.830Z,18.05
2019-06-15T00:49:51.515Z,18.02
2019-06-15T00:52:18.415Z,18.07
2019-06-15T00:54:50.297Z,18.05
2019-06-15T00:57:13.819Z,18.05
2019-06-15T00:59:40.598Z,18.07
2019-06-15T01:02:07.326Z,18.06
2019-06-15T01:04:34.110Z,18.05
2019-06-15T01:07:00.898Z,18.06
2019-06-15T01:09:27.594Z,18.03
2019-06-15T01:11:54.420Z,18.12
2019-06-15T01:14:21.195Z,18.03
2019-06-15T01:16:48.003Z,17.95
2019-06-15T01:19:14.785Z,17.96
2019-06-15T01:21:41.563Z,17.96
2019-06-15T01:24:08.323Z,17.90
2019-06-15T01:26:35.104Z,17.87
2019-06-15T01:29:01.784Z,17.83
2019-06-15T01:31:28.487Z,17.94
2019-06-15T01:33:55.278Z,17.97
2019-06-15T01:36:22.070Z,18.00
2019-06-15T01:38:48.766Z,17.95
2019-06-15T01:41:15.551Z,17.98
2019-06-15T01:43:42.249Z,18.01
2019-06-15T01:46:09.055Z,18.08
2019-06-15T01:48:35.852Z,18.05
2019-06-15T01:51:02.799Z,17.98
2019-06-15T01:53:29.585Z,17.96
2019-06-15T01:55:57.422Z,17.96
2019-06-15T01:58:24.114Z,18.03
2019-06-15T02:00:50.827Z,18.01
2019-06-15T02:03:18.610Z,18.01
2019-06-15T02:05:45.293Z,17.99
2019-06-15T02:08:12.103Z,17.99
2019-06-15T02:10:38.804Z,18.00
2019-06-15T02:13:05.603Z,18.03
2019-06-15T02:15:32.394Z,18.05
2019-06-15T02:17:59.184Z,18.08
2019-06-15T02:20:26.115Z,18.10
2019-06-15T02:22:52.797Z,18.16
2019-06-15T02:25:34.886Z,18.14
2019-06-15T02:27:52.298Z,18.18
2019-06-15T02:30:26.094Z,18.15
2019-06-15T02:32:53.157Z,18.12
2019-06-15T02:35:19.963Z,18.18
2019-06-15T02:37:46.738Z,18.22
2019-06-15T02:40:13.633Z,18.06
2019-06-15T02:42:40.329Z,18.23
2019-06-15T02:45:07.429Z,18.21
2019-06-15T02:47:34.240Z,18.18
2019-06-15T02:50:01.085Z,18.13
2019-06-15T02:52:28.134Z,18.21
2019-06-15T02:54:54.850Z,18.25
2019-06-15T02:57:21.527Z,18.25
2019-06-15T02:59:48.251Z,18.23
2019-06-15T03:02:15.057Z,18.19
2019-06-15T03:04:41.746Z,18.19
2019-06-15T03:07:08.654Z,18.29
2019-06-15T03:09:35.434Z,18.23
2019-06-15T03:12:02.320Z,18.08
2019-06-15T03:14:29.001Z,18.04
2019-06-15T03:17:29.367Z,17.99
2019-06-15T03:20:19.045Z,17.96
2019-06-15T03:22:45.725Z,17.95
2019-06-15T03:25:12.811Z,17.99
2019-06-15T03:27:39.521Z,18.04
2019-06-15T03:30:06.820Z,17.93
2019-06-15T03:32:33.626Z,17.98
2019-06-15T03:35:00.320Z,17.97
2019-06-15T03:37:27.001Z,17.98
2019-06-15T03:39:53.708Z,17.95
2019-06-15T03:42:20.396Z,17.90
2019-06-15T03:44:47.186Z,17.87
2019-06-15T03:47:13.979Z,17.85
2019-06-15T03:49:41.778Z,17.85
2019-06-15T03:52:08.489Z,17.85
2019-06-15T03:54:35.293Z,17.85
2019-06-15T03:57:01.966Z,17.58
2019-06-15T03:59:28.743Z,17.58
2019-06-15T04:01:55.483Z,17.45
2019-06-15T04:04:22.162Z,17.38
2019-06-15T04:06:48.842Z,17.36
2019-06-15T04:09:15.536Z,17.30
2019-06-15T04:11:42.199Z,17.15
2019-06-15T04:14:09.047Z,17.15
2019-06-15T04:16:35.839Z,17.09
2019-06-15T04:19:02.808Z,17.02
2019-06-15T04:21:29.575Z,17.06
2019-06-15T04:23:56.447Z,17.10
2019-06-15T04:26:35.290Z,17.10
2019-06-15T04:28:51.784Z,17.11
2019-06-15T04:31:18.471Z,17.04
2019-06-15T04:33:45.186Z,17.04
2019-06-15T04:36:11.960Z,17.01
2019-06-15T04:38:38.652Z,17.03
2019-06-15T04:41:05.502Z,17.05
2019-06-15T04:43:33.330Z,17.07
2019-06-15T04:46:00.040Z,17.03
2019-06-15T04:48:44.908Z,17.08
2019-06-15T04:51:11.609Z,17.08
2019-06-15T04:53:38.276Z,17.05
2019-06-15T04:56:05.179Z,17.04
2019-06-15T04:58:31.966Z,17.04
2019-06-15T05:00:58.747Z,17.05
2019-06-15T05:03:25.532Z,17.04
2019-06-15T05:05:52.282Z,17.06
2019-06-15T05:08:18.950Z,17.15
2019-06-15T05:10:45.835Z,17.15
2019-06-15T05:13:12.538Z,17.15
2019-06-15T05:15:39.337Z,17.20
2019-06-15T05:18:05.998Z,17.19
2019-06-15T05:20:32.730Z,17.16
2019-06-15T05:22:59.495Z,17.19
2019-06-15T05:25:26.329Z,17.26
2019-06-15T05:27:53.155Z,17.18
2019-06-15T05:30:20.961Z,17.16
2019-06-15T05:32:47.841Z,17.18
2019-06-15T05:35:14.927Z,17.21
2019-06-15T05:37:41.714Z,17.18
2019-06-15T05:40:09.654Z,17.18
2019-06-15T05:42:37.453Z,17.21
2019-06-15T05:45:05.080Z,17.18
2019-06-15T05:47:31.863Z,17.11
2019-06-15T05:49:58.568Z,17.13
2019-06-15T05:52:25.374Z,17.08
2019-06-15T05:54:52.057Z,17.10
2019-06-15T05:57:21.885Z,17.08
2019-06-15T05:59:47.416Z,17.03
2019-06-15T06:02:14.104Z,17.03
2019-06-15T06:04:40.829Z,17.01
2019-06-15T06:07:07.795Z,17.04
2019-06-15T06:09:36.446Z,17.05
2019-06-15T06:12:03.146Z,17.06
2019-06-15T06:14:29.829Z,17.04
2019-06-15T06:16:56.499Z,17.05
2019-06-15T06:19:23.192Z,17.06
2019-06-15T06:21:51.780Z,17.11
2019-06-15T06:24:19.648Z,17.16
2019-06-15T06:26:46.426Z,17.20
2019-06-15T06:29:13.415Z,17.22
2019-06-15T06:31:40.184Z,17.29
2019-06-15T06:34:07.157Z,17.34
2019-06-15T06:36:33.838Z,17.41
2019-06-15T06:39:00.544Z,17.46
2019-06-15T06:41:27.417Z,17.49
2019-06-15T06:43:54.245Z,17.55
2019-06-15T06:46:21.085Z,17.63
2019-06-15T06:48:48.037Z,17.62
2019-06-15T06:51:14.726Z,17.60
2019-06-15T06:53:41.406Z,17.63
2019-06-15T06:56:08.222Z,17.64
2019-06-15T06:58:34.922Z,17.64
2019-06-15T07:01:01.837Z,17.67
2019-06-15T07:03:28.754Z,17.71
2019-06-15T07:05:55.444Z,17.70
2019-06-15T07:08:22.247Z,17.76
2019-06-15T07:10:48.938Z,17.82
2019-06-15T07:13:15.669Z,17.88
2019-06-15T07:15:42.758Z,17.85
2019-06-15T07:18:09.455Z,17.83
2019-06-15T07:20:36.238Z,17.79
2019-06-15T07:25:43.323Z,17.80
2019-06-15T07:28:10.481Z,17.77
2019-06-15T07:30:38.744Z,17.80
2019-06-15T07:33:05.560Z,17.87
2019-06-15T07:35:32.234Z,17.88
2019-06-15T07:37:59.087Z,17.90
2019-06-15T07:40:25.841Z,17.91
2019-06-15T07:42:52.688Z,17.94
2019-06-15T07:45:19.991Z,17.96
2019-06-15T07:47:46.735Z,17.98
2019-06-15T07:50:13.615Z,17.95
2019-06-15T07:52:40.304Z,17.90
2019-06-15T07:55:07.840Z,17.88
2019-06-15T07:57:36.127Z,17.82
2019-06-15T08:00:04.012Z,17.83
2019-06-15T08:02:31.085Z,17.84
2019-06-15T08:04:57.779Z,17.89
2019-06-15T08:07:24.474Z,17.95
2019-06-15T08:09:51.257Z,18.01
2019-06-15T08:12:18.243Z,18.05
2019-06-15T08:14:44.944Z,18.03
2019-06-15T08:17:11.686Z,18.10
2019-06-15T08:19:38.465Z,18.11
2019-06-15T08:22:05.241Z,18.12
2019-06-15T08:24:31.946Z,18.13
2019-06-15T08:26:58.640Z,18.11
2019-06-15T08:29:25.337Z,18.12
2019-06-15T08:31:52.147Z,18.11
2019-06-15T08:34:18.940Z,18.15
2019-06-15T08:36:45.681Z,18.12
2019-06-15T08:39:12.361Z,18.11
2019-06-15T08:41:39.159Z,18.08
2019-06-15T08:44:06.472Z,18.11
2019-06-15T08:46:33.172Z,18.13
2019-06-15T08:49:00.418Z,18.15
2019-06-15T08:51:28.471Z,18.20
2019-06-15T08:53:56.706Z,18.13
2019-06-15T08:56:24.629Z,18.11
2019-06-15T08:58:55.725Z,18.14
2019-06-15T09:01:22.151Z,18.14
2019-06-15T09:03:50.150Z,18.19
2019-06-15T09:06:17.857Z,18.22
2019-06-15T09:08:45.390Z,18.17
2019-06-15T09:11:13.953Z,18.10
2019-06-15T09:13:41.841Z,18.17
2019-06-15T09:16:09.806Z,18.22
2019-06-15T09:18:36.774Z,18.29
2019-06-15T09:21:04.332Z,18.33
2019-06-15T09:23:31.866Z,18.32
2019-06-15T09:25:58.834Z,18.34
2019-06-15T09:28:25.529Z,18.37
2019-06-15T09:30:52.212Z,18.42
2019-06-15T09:33:19.019Z,18.47
2019-06-15T09:35:45.830Z,18.54
2019-06-15T09:38:12.638Z,18.50
2019-06-15T09:40:39.482Z,18.54
2019-06-15T09:43:06.271Z,18.64
2019-06-15T09:45:33.565Z,18.70
2019-06-15T09:48:00.253Z,18.77
2019-06-15T09:50:27.933Z,18.73
2019-06-15T09:52:54.765Z,18.71
2019-06-15T09:55:22.123Z,18.70
2019-06-15T09:57:48.806Z,18.74
2019-06-15T10:00:15.964Z,18.75
2019-06-15T10:02:42.736Z,18.67
2019-06-15T10:05:09.818Z,18.78
2019-06-15T10:07:36.695Z,18.83
2019-06-15T10:10:03.999Z,18.84
2019-06-15T10:12:30.804Z,18.76
2019-06-15T10:14:57.477Z,18.75
2019-06-15T10:17:24.279Z,18.68
2019-06-15T10:19:51.763Z,18.78
2019-06-15T10:22:18.674Z,18.81
2019-06-15T10:24:45.423Z,18.82
2019-06-15T10:27:12.245Z,18.86
2019-06-15T10:29:42.296Z,18.83
2019-06-15T10:32:07.923Z,18.80
2019-06-15T10:34:34.708Z,18.74
2019-06-15T10:37:01.716Z,18.76
2019-06-15T10:39:28.499Z,18.75
2019-06-15T10:41:55.206Z,18.74
2019-06-15T10:44:21.904Z,18.76
2019-06-15T10:46:48.695Z,18.74
2019-06-15T10:49:15.506Z,18.83
2019-06-15T10:51:42.203Z,18.84
2019-06-15T10:54:08.983Z,18.80
2019-06-15T10:56:35.784Z,18.77
2019-06-15T10:59:02.512Z,18.74
2019-06-15T11:01:29.308Z,18.73
2019-06-15T11:03:56.195Z,18.78
2019-06-15T11:06:23.015Z,18.83
2019-06-15T11:08:49.701Z,18.85
2019-06-15T11:11:21.637Z,18.90
2019-06-15T11:13:48.254Z,18.90
2019-06-15T11:16:15.154Z,19.03
2019-06-15T11:18:42.986Z,19.09
2019-06-15T11:21:10.196Z,19.21
2019-06-15T11:23:37.160Z,19.30
2019-06-15T11:26:04.056Z,19.39
2019-06-15T11:28:30.968Z,19.37
2019-06-15T11:30:57.909Z,19.36
2019-06-15T11:33:24.626Z,19.30
2019-06-15T11:35:51.325Z,19.20
2019-06-15T11:38:18.490Z,19.23
2019-06-15T11:40:45.708Z,19.36
2019-06-15T11:43:12.485Z,19.39
2019-06-15T11:45:39.296Z,19.50
2019-06-15T11:48:06.119Z,19.47
2019-06-15T11:50:32.924Z,19.45
2019-06-15T11:53:00.329Z,19.38
2019-06-15T11:55:38.982Z,19.39
2019-06-15T11:57:55.751Z,19.40
2019-06-15T12:00:31.243Z,19.46
2019-06-15T12:02:55.027Z,19.55
2019-06-15T12:05:21.816Z,19.52
2019-06-15T12:07:48.492Z,19.59
2019-06-15T12:10:15.268Z,19.60
2019-06-15T12:12:41.944Z,19.50
2019-06-15T12:15:08.699Z,19.44
2019-06-15T12:17:35.418Z,19.53
2019-06-15T12:20:02.238Z,19.41
2019-06-15T12:22:29.141Z,19.32
2019-06-15T12:24:55.854Z,19.34
2019-06-15T12:27:22.569Z,19.30
2019-06-15T12:29:49.439Z,19.41
2019-06-15T12:32:17.464Z,19.65
2019-06-15T12:34:44.285Z,19.70
2019-06-15T12:37:12.075Z,19.85
2019-06-15T12:39:41.848Z,20.05
2019-06-15T12:42:08.373Z,20.25
2019-06-15T12:44:35.075Z,20.35
2019-06-15T12:47:02.254Z,20.43
2019-06-15T12:49:28.916Z,20.41
2019-06-15T12:51:55.682Z,20.29
2019-06-15T12:54:22.585Z,20.36
2019-06-15T12:56:49.420Z,20.37
2019-06-15T12:59:16.119Z,20.30
2019-06-15T13:01:42.886Z,20.21
2019-06-15T13:04:10.675Z,20.29
2019-06-15T13:06:37.347Z,20.27
2019-06-15T13:09:05.615Z,20.28
2019-06-15T13:11:32.311Z,20.19
2019-06-15T13:13:59.088Z,20.27
2019-06-15T13:16:38.527Z,20.38
2019-06-15T13:18:54.546Z,20.57
2019-06-15T13:21:21.334Z,20.79
2019-06-15T13:23:48.107Z,20.92
2019-06-15T13:26:14.814Z,20.77
2019-06-15T13:28:41.619Z,20.64
2019-06-15T13:31:17.706Z,20.74
2019-06-15T13:33:37.128Z,20.71
2019-06-15T13:36:03.884Z,20.70
2019-06-15T13:38:30.569Z,20.63
2019-06-15T13:40:57.476Z,20.60
2019-06-15T13:43:25.246Z,20.52
2019-06-15T13:46:06.202Z,20.49
2019-06-15T13:48:33.023Z,20.49
2019-06-15T13:50:59.710Z,20.45
2019-06-15T13:53:26.415Z,20.43
2019-06-15T13:55:53.246Z,20.34
2019-06-15T13:58:19.945Z,20.28
2019-06-15T14:00:46.792Z,20.22
2019-06-15T14:03:13.498Z,20.14
2019-06-15T14:05:40.441Z,20.15
2019-06-15T14:08:07.133Z,20.14
2019-06-15T14:10:50.763Z,20.12
2019-06-15T14:13:18.045Z,20.12
2019-06-15T14:15:44.695Z,20.09
2019-06-15T14:18:11.382Z,20.16
2019-06-15T14:20:38.808Z,20.16
2019-06-15T14:23:05.522Z,20.25
2019-06-15T14:25:32.235Z,20.42
2019-06-15T14:27:58.959Z,20.71
2019-06-15T14:30:25.722Z,21.06
2019-06-15T14:32:52.493Z,21.26
2019-06-15T14:35:19.195Z,21.26
2019-06-15T14:37:45.899Z,21.20
2019-06-15T14:40:15.571Z,21.11
2019-06-15T14:42:42.252Z,21.01
2019-06-15T14:45:10.164Z,21.24
2019-06-15T14:47:36.959Z,21.16
2019-06-15T14:50:04.318Z,21.17
2019-06-15T14:52:31.649Z,21.14
2019-06-15T14:54:58.333Z,20.97
2019-06-15T14:57:26.982Z,20.91
2019-06-15T15:00:01.404Z,20.94
2019-06-15T15:02:22.194Z,21.23
2019-06-15T15:04:48.854Z,21.50
2019-06-15T15:07:16.927Z,21.68
2019-06-15T15:09:46.024Z,21.73
2019-06-15T15:12:16.167Z,21.93
2019-06-15T15:14:43.105Z,21.71
2019-06-15T15:17:09.908Z,21.51
2019-06-15T15:19:36.587Z,21.62
2019-06-15T15:22:03.486Z,21.71
2019-06-15T15:24:30.214Z,21.89
2019-06-15T15:26:57.088Z,21.95
2019-06-15T15:29:23.963Z,22.00
2019-06-15T15:31:51.386Z,22.03
2019-06-15T15:34:18.076Z,21.84
2019-06-15T15:36:46.194Z,21.85
2019-06-15T15:39:13.180Z,21.90
2019-06-15T15:41:39.961Z,22.24
2019-06-15T15:44:06.646Z,22.35
2019-06-15T15:46:33.440Z,22.41
2019-06-15T15:49:00.298Z,22.30
2019-06-15T15:51:27.070Z,22.24
2019-06-15T15:53:53.754Z,22.35
2019-06-15T15:56:20.537Z,22.31
2019-06-15T15:58:47.453Z,22.39
2019-06-15T16:01:16.904Z,22.43
2019-06-15T16:03:42.933Z,22.62
2019-06-15T16:06:09.746Z,22.58
2019-06-15T16:08:36.432Z,22.31
2019-06-15T16:11:03.377Z,22.06
2019-06-15T16:13:30.244Z,22.10
2019-06-15T16:15:57.013Z,21.82
2019-06-15T16:18:23.824Z,21.78
2019-06-15T16:20:50.623Z,21.66
2019-06-15T16:23:17.285Z,21.57
2019-06-15T16:25:46.193Z,21.52
2019-06-15T16:28:12.638Z,21.48
2019-06-15T16:31:00.286Z,21.34
2019-06-15T16:33:08.213Z,21.35
2019-06-15T16:35:36.137Z,21.40
2019-06-15T16:38:02.989Z,21.44
2019-06-15T16:40:34.499Z,21.37
2019-06-15T16:43:02.184Z,21.39
2019-06-15T16:45:28.890Z,21.32
2019-06-15T16:47:55.570Z,21.20
2019-06-15T16:50:22.484Z,21.04
2019-06-15T16:52:49.282Z,21.00
2019-06-15T16:55:16.849Z,20.99
2019-06-15T16:57:46.485Z,20.88
2019-06-15T17:00:17.983Z,20.85
2019-06-15T17:02:46.896Z,20.82
2019-06-15T17:05:13.559Z,20.78
2019-06-15T17:07:40.340Z,20.73
2019-06-15T17:10:07.148Z,20.74
2019-06-15T17:12:33.820Z,20.64
2019-06-15T17:15:00.527Z,20.54
2019-06-15T17:17:27.222Z,20.50
2019-06-15T17:19:53.898Z,20.40
2019-06-15T17:22:21.595Z,20.37
2019-06-15T17:24:48.519Z,20.21
2019-06-15T17:27:17.098Z,20.12
2019-06-15T17:29:43.854Z,20.02
2019-06-15T17:32:10.658Z,19.91
2019-06-15T17:34:37.437Z,19.87
2019-06-15T17:37:06.687Z,19.94
2019-06-15T17:39:32.821Z,19.88
2019-06-15T17:41:59.511Z,19.77
2019-06-15T17:44:26.202Z,19.77
2019-06-15T17:46:52.962Z,19.76
2019-06-15T17:49:19.759Z,19.79
2019-06-15T17:51:46.615Z,19.77
2019-06-15T17:54:13.287Z,19.72
2019-06-15T17:56:40.078Z,19.60
2019-06-15T17:59:06.867Z,19.58
2019-06-15T18:01:36.286Z,19.53
2019-06-15T18:04:03.371Z,19.44
2019-06-15T18:06:30.063Z,19.29
2019-06-15T18:08:56.758Z,19.21
2019-06-15T18:11:26.010Z,19.04
2019-06-15T18:13:52.137Z,18.93
2019-06-15T18:16:18.802Z,18.88
2019-06-15T18:18:45.561Z,18.83
2019-06-15T18:21:12.374Z,18.71
2019-06-15T18:23:39.060Z,18.66
2019-06-15T18:26:07.159Z,18.54
2019-06-15T18:28:36.237Z,18.48
2019-06-15T18:31:02.734Z,18.38
2019-06-15T18:33:29.586Z,18.35
2019-06-15T18:35:56.331Z,18.23
2019-06-15T18:38:23.077Z,18.24
2019-06-15T18:40:49.781Z,18.18
2019-06-15T18:43:17.027Z,18.28
2019-06-15T18:45:43.998Z,18.25
2019-06-15T18:48:10.809Z,18.09
2019-06-15T18:50:38.599Z,18.00
2019-06-15T18:53:07.151Z,18.03
2019-06-15T18:55:36.333Z,18.01
2019-06-15T18:58:03.371Z,17.87
2019-06-15T19:00:30.250Z,17.77
2019-06-15T19:02:57.143Z,17.56
2019-06-15T19:05:26.076Z,17.44
2019-06-15T19:07:52.900Z,17.18
2019-06-15T19:10:34.111Z,17.10
2019-06-15T19:13:01.236Z,17.02
2019-06-15T19:15:28.137Z,16.87
2019-06-15T19:17:55.984Z,16.84
2019-06-15T19:20:23.010Z,16.72
2019-06-15T19:22:49.820Z,16.62
2019-06-15T19:25:17.729Z,16.63
2019-06-15T19:27:44.373Z,16.48
2019-06-15T19:30:11.377Z,16.28
2019-06-15T19:32:38.047Z,16.31
2019-06-15T19:35:04.930Z,16.22
2019-06-15T19:37:33.911Z,16.05
2019-06-15T19:40:00.419Z,15.98
2019-06-15T19:42:27.092Z,16.03
2019-06-15T19:44:56.105Z,15.95
2019-06-15T19:47:22.457Z,15.92
2019-06-15T19:49:49.126Z,15.89
2019-06-15T19:52:16.914Z,15.88
2019-06-15T19:54:43.862Z,15.85
2019-06-15T19:57:10.657Z,15.88
2019-06-15T19:59:37.446Z,15.87
2019-06-15T20:02:06.646Z,15.87
2019-06-15T20:04:32.820Z,15.82
2019-06-15T20:06:59.605Z,15.82
2019-06-15T20:09:26.314Z,15.79
2019-06-15T20:11:53.026Z,15.78
2019-06-15T20:14:19.800Z,15.79
2019-06-15T20:16:47.043Z,15.70
2019-06-15T20:19:13.918Z,15.67
2019-06-15T20:21:40.594Z,15.64
2019-06-15T20:24:07.391Z,15.63
2019-06-15T20:26:36.521Z,15.60
2019-06-15T20:29:02.893Z,15.53
2019-06-15T20:31:29.575Z,15.56
2019-06-15T20:33:57.035Z,15.53
2019-06-15T20:36:23.719Z,15.51
2019-06-15T20:38:50.533Z,15.51
2019-06-15T20:41:17.213Z,15.19
2019-06-15T20:43:46.029Z,15.42
2019-06-15T20:46:12.606Z,15.42
2019-06-15T20:48:39.449Z,15.39
2019-06-15T20:51:10.078Z,15.38
2019-06-15T20:53:36.755Z,15.41
2019-06-15T20:56:03.565Z,15.38
2019-06-15T20:58:30.253Z,15.39
2019-06-15T21:00:56.919Z,15.43
2019-06-15T21:03:23.745Z,15.43
2019-06-15T21:05:50.400Z,15.42
2019-06-15T21:08:17.155Z,15.44
2019-06-15T21:10:46.146Z,15.38
2019-06-15T21:13:12.500Z,15.42
2019-06-15T21:15:43.006Z,15.46
2019-06-15T21:18:09.852Z,15.34
2019-06-15T21:20:36.587Z,15.34
2019-06-15T21:23:03.408Z,15.33
2019-06-15T21:25:30.112Z,15.34
2019-06-15T21:27:56.949Z,15.41
2019-06-15T21:30:23.780Z,15.44
2019-06-15T21:32:50.567Z,15.39
2019-06-15T21:35:17.257Z,15.38
2019-06-15T21:37:46.305Z,15.41
2019-06-15T21:40:15.960Z,15.46
2019-06-15T21:42:42.420Z,15.49
2019-06-15T21:45:09.205Z,15.48
2019-06-15T21:47:37.093Z,15.54
2019-06-15T21:50:04.939Z,15.51
2019-06-15T21:52:31.622Z,15.48
2019-06-15T21:54:59.417Z,15.43
2019-06-15T21:57:26.905Z,15.44
2019-06-15T21:59:53.759Z,15.49
2019-06-15T22:02:20.553Z,15.44
2019-06-15T22:04:47.330Z,15.44
2019-06-15T22:07:16.764Z,15.48
2019-06-15T22:09:42.606Z,15.49
2019-06-15T22:12:09.386Z,15.49
2019-06-15T22:14:36.176Z,15.51
2019-06-15T22:17:02.973Z,15.48
2019-06-15T22:19:29.638Z,15.48
2019-06-15T22:21:56.557Z,15.50
2019-06-15T22:24:23.217Z,15.50
2019-06-15T22:26:49.984Z,15.51
2019-06-15T22:29:16.975Z,15.52
2019-06-15T22:31:43.675Z,15.55
2019-06-15T22:34:10.447Z,15.52
2019-06-15T22:36:37.245Z,15.47
2019-06-15T22:39:06.411Z,15.47
2019-06-15T22:41:36.041Z,15.53
2019-06-15T22:44:03.244Z,15.50
2019-06-15T22:46:29.944Z,15.40
2019-06-15T22:48:56.706Z,15.45
2019-06-15T22:51:23.377Z,15.47
2019-06-15T22:53:50.204Z,15.50
2019-06-15T22:56:17.364Z,15.44
2019-06-15T22:58:46.155Z,15.43
2019-06-15T23:01:12.782Z,15.34
2019-06-15T23:03:39.557Z,15.36
2019-06-15T23:06:07.008Z,15.31
2019-06-15T23:08:36.167Z,15.33
2019-06-15T23:11:02.541Z,15.35
2019-06-15T23:13:29.210Z,15.28
2019-06-15T23:15:56.513Z,15.33
2019-06-15T23:18:23.289Z,15.33
2019-06-15T23:20:50.641Z,15.34
2019-06-15T23:23:17.313Z,15.34
2019-06-15T23:25:44.175Z,15.31
2019-06-15T23:28:10.948Z,15.33
2019-06-15T23:30:37.845Z,15.23
2019-06-15T23:33:06.539Z,15.16
2019-06-15T23:35:39.133Z,15.26
2019-06-15T23:38:06.557Z,15.22
2019-06-15T23:40:35.906Z,15.27
2019-06-15T23:43:02.092Z,15.23
2019-06-15T23:45:28.769Z,15.28
2019-06-15T23:47:57.549Z,15.31
2019-06-15T23:50:26.431Z,15.42
2019-06-15T23:52:53.112Z,15.39
2019-06-15T23:55:20.005Z,15.29
2019-06-15T23:57:47.832Z,15.25
